Time;durP1;ratioP1;P1;durP2;ratioP2;P2;SDS_P1;SDS_P2;PMS_P1;PMS_P2;Temp;Humidity;BMP_temperature;BMP_pressure;BME280_temperature;BME280_humidity;BME280_pressure;Samples;Min_cycle;Max_cycle;Signal;HPM_P1;HPM_P2
2023/10/18 00:02:49;;;;;;;;;;;6.20;99.90;;;;;;5131353;27;19918;-47
2023/10/18 00:05:18;;;;;;;;;;;6.20;99.90;;;;;;5113907;28;19908;-46
2023/10/18 00:07:43;;;;;;;;;;;6.20;99.90;;;;;;5113246;27;19919;-46
2023/10/18 00:10:09;;;;;;;;;;;6.10;99.90;;;;;;5113682;28;19930;-47
2023/10/18 00:12:35;;;;;;;;;;;6.10;99.90;;;;;;5123282;27;19919;-46
2023/10/18 00:15:01;;;;;;;;;;;6.10;99.90;;;;;;5132786;27;20334;-48
2023/10/18 00:17:27;;;;;;;;;;;6.10;99.90;;;;;;5133169;27;19911;-47
2023/10/18 00:19:53;;;;;;;;;;;6.10;99.90;;;;;;5134065;27;20301;-46
2023/10/18 00:22:18;;;;;;;;;;;6.10;99.90;;;;;;5132343;27;19911;-46
2023/10/18 00:24:43;;;;;;;;;;;6.10;99.90;;;;;;5134012;27;19908;-46
2023/10/18 00:27:09;;;;;;;;;;;6.10;99.90;;;;;;5131887;27;19911;-48
2023/10/18 00:29:36;;;;;;;;;;;6.10;99.90;;;;;;5133882;27;20388;-46
2023/10/18 00:32:03;;;;;;;;;;;6.10;99.90;;;;;;5130842;27;20072;-46
2023/10/18 00:34:28;;;;;;;;;;;6.10;99.90;;;;;;5131179;27;19907;-46
2023/10/18 00:36:54;;;;;;;;;;;6.10;99.90;;;;;;5113031;28;19927;-46
2023/10/18 00:39:21;;;;;;;;;;;6.20;99.90;;;;;;5132183;27;20515;-46
2023/10/18 00:41:52;;;;;;;;;;;6.20;99.90;;;;;;5115739;27;20278;-45
2023/10/18 00:44:21;;;;;;;;;;;6.20;99.90;;;;;;5132905;27;19938;-47
2023/10/18 00:46:47;;;;;;;;;;;6.20;99.90;;;;;;5121487;27;19919;-46
2023/10/18 00:49:15;;;;;;;;;;;6.20;99.90;;;;;;5113218;28;19916;-46
2023/10/18 00:51:41;;;;;;;;;;;6.20;99.90;;;;;;5113110;28;20282;-46
2023/10/18 00:54:11;;;;;;;;;;;6.20;99.90;;;;;;5112816;28;19912;-46
2023/10/18 00:56:50;;;;;;;;;;;6.20;99.90;;;;;;5113014;28;19999;-46
2023/10/18 00:59:22;;;;;;;;;;;6.20;99.90;;;;;;5113220;28;19907;-45
2023/10/18 01:01:53;;;;;;;;;;;6.20;99.90;;;;;;5119254;28;19947;-47
2023/10/18 01:04:23;;;;;;;;;;;6.10;99.90;;;;;;5128214;28;20002;-46
2023/10/18 01:06:50;;;;;;;;;;;6.10;99.90;;;;;;5112950;28;19907;-48
2023/10/18 01:09:17;;;;;;;;;;;6.10;99.90;;;;;;5112609;28;19919;-47
2023/10/18 01:11:46;;;;;;;;;;;6.10;99.90;;;;;;5124103;28;20374;-46
2023/10/18 01:14:16;;;;;;;;;;;6.10;99.90;;;;;;5116676;28;20010;-47
2023/10/18 01:16:42;;;;;;;;;;;6.20;99.90;;;;;;5115999;28;19963;-48
2023/10/18 01:19:08;;;;;;;;;;;6.20;99.90;;;;;;5112990;28;19951;-46
2023/10/18 01:21:34;;;;;;;;;;;6.20;99.90;;;;;;5112782;28;19953;-46
2023/10/18 01:24:00;;;;;;;;;;;6.20;99.90;;;;;;5112447;28;19916;-46
2023/10/18 01:26:26;;;;;;;;;;;6.20;99.90;;;;;;5112829;28;20381;-47
2023/10/18 01:28:53;;;;;;;;;;;6.10;99.90;;;;;;5112640;28;19915;-46
2023/10/18 01:31:19;;;;;;;;;;;6.20;99.90;;;;;;5122172;28;19912;-46
2023/10/18 01:33:46;;;;;;;;;;;6.20;99.90;;;;;;5112783;28;20263;-48
2023/10/18 01:36:14;;;;;;;;;;;6.10;99.90;;;;;;5115385;28;19919;-46
2023/10/18 01:38:48;;;;;;;;;;;6.10;99.90;;;;;;5113489;28;19919;-46
2023/10/18 01:41:25;;;;;;;;;;;6.10;99.90;;;;;;5116228;28;19912;-47
2023/10/18 01:44:06;;;;;;;;;;;6.10;99.90;;;;;;5116537;28;19908;-47
2023/10/18 01:46:37;;;;;;;;;;;6.10;99.90;;;;;;5128746;27;20449;-46
2023/10/18 01:49:06;;;;;;;;;;;6.10;99.90;;;;;;5136116;27;19978;-46
2023/10/18 01:51:32;;;;;;;;;;;6.10;99.90;;;;;;5137133;27;20277;-46
2023/10/18 01:54:03;;;;;;;;;;;6.10;99.90;;;;;;5124961;27;19912;-46
2023/10/18 01:56:29;;;;;;;;;;;6.10;99.90;;;;;;5116403;28;20484;-46
2023/10/18 01:58:54;;;;;;;;;;;6.00;99.90;;;;;;5124741;27;19911;-46
2023/10/18 02:01:20;;;;;;;;;;;6.00;99.90;;;;;;5125429;27;20494;-47
2023/10/18 02:03:47;;;;;;;;;;;6.00;99.90;;;;;;5116256;28;19908;-48
2023/10/18 02:06:14;;;;;;;;;;;5.90;99.90;;;;;;5116182;28;20334;-46
2023/10/18 02:08:40;;;;;;;;;;;5.90;99.90;;;;;;5115718;27;19926;-48
2023/10/18 02:11:08;;;;;;;;;;;5.90;99.90;;;;;;5123040;27;19964;-48
2023/10/18 02:13:34;;;;;;;;;;;5.90;99.90;;;;;;5126144;27;20317;-46
2023/10/18 02:15:59;;;;;;;;;;;5.80;99.90;;;;;;5134111;27;19911;-48
2023/10/18 02:18:27;;;;;;;;;;;5.80;99.90;;;;;;5131322;27;19964;-46
2023/10/18 02:20:53;;;;;;;;;;;5.80;99.90;;;;;;5115862;28;20274;-45
2023/10/18 02:23:21;;;;;;;;;;;5.80;99.90;;;;;;5115007;27;19915;-45
2023/10/18 02:25:47;;;;;;;;;;;5.80;99.90;;;;;;5136081;27;19907;-46
2023/10/18 02:28:23;;;;;;;;;;;5.80;99.90;;;;;;5135259;27;20065;-46
2023/10/18 02:30:55;;;;;;;;;;;5.90;99.90;;;;;;5134142;27;19918;-46
2023/10/18 02:33:23;;;;;;;;;;;5.90;99.90;;;;;;5135460;27;19976;-47
2023/10/18 02:35:49;;;;;;;;;;;5.90;99.90;;;;;;5135866;27;19915;-46
2023/10/18 02:38:14;;;;;;;;;;;5.90;99.90;;;;;;5134246;27;19923;-46
2023/10/18 02:40:42;;;;;;;;;;;5.80;99.90;;;;;;5135273;27;20300;-45
2023/10/18 02:43:14;;;;;;;;;;;5.80;99.90;;;;;;5136154;27;19907;-47
2023/10/18 02:45:42;;;;;;;;;;;5.80;99.90;;;;;;5119115;27;19919;-46
2023/10/18 02:48:13;;;;;;;;;;;5.80;99.90;;;;;;5115774;27;20014;-47
2023/10/18 02:50:40;;;;;;;;;;;5.80;99.90;;;;;;5135354;27;19915;-47
2023/10/18 02:53:08;;;;;;;;;;;5.80;99.90;;;;;;5134558;27;19962;-46
2023/10/18 02:55:38;;;;;;;;;;;5.80;99.90;;;;;;5126500;27;20370;-46
2023/10/18 02:58:06;;;;;;;;;;;5.80;99.90;;;;;;5134529;27;19922;-47
2023/10/18 03:00:34;;;;;;;;;;;5.80;99.90;;;;;;5129425;27;19956;-48
2023/10/18 03:03:01;;;;;;;;;;;5.80;99.90;;;;;;5135557;27;19907;-47
2023/10/18 03:05:28;;;;;;;;;;;5.80;99.90;;;;;;5129053;27;19922;-46
2023/10/18 03:07:53;;;;;;;;;;;5.80;99.90;;;;;;5129396;27;19919;-46
2023/10/18 03:10:27;;;;;;;;;;;5.80;99.90;;;;;;5116356;27;19919;-49
2023/10/18 03:12:53;;;;;;;;;;;5.80;99.90;;;;;;5114568;28;19918;-47
2023/10/18 03:15:20;;;;;;;;;;;5.80;99.90;;;;;;5114597;27;19911;-46
2023/10/18 03:17:49;;;;;;;;;;;5.80;99.90;;;;;;5114583;28;20381;-46
2023/10/18 03:20:22;;;;;;;;;;;5.80;99.90;;;;;;5114046;28;19965;-46
2023/10/18 03:22:49;;;;;;;;;;;5.80;99.90;;;;;;5114655;28;20381;-46
2023/10/18 03:25:26;;;;;;;;;;;5.80;99.90;;;;;;5116295;27;19919;-46
2023/10/18 03:27:57;;;;;;;;;;;5.80;99.90;;;;;;5114062;27;19919;-45
2023/10/18 03:30:23;;;;;;;;;;;5.80;99.90;;;;;;5114187;27;20437;-46
2023/10/18 03:32:51;;;;;;;;;;;5.80;99.90;;;;;;5114360;28;19912;-46
2023/10/18 03:35:20;;;;;;;;;;;5.70;99.90;;;;;;5114495;28;19907;-46
2023/10/18 03:37:46;;;;;;;;;;;5.70;99.90;;;;;;5114118;28;19926;-46
2023/10/18 03:40:23;;;;;;;;;;;5.70;99.90;;;;;;5113660;27;19912;-45
2023/10/18 03:42:51;;;;;;;;;;;5.70;99.90;;;;;;5114328;28;19907;-46
2023/10/18 03:45:22;;;;;;;;;;;5.70;99.90;;;;;;5131202;27;20380;-46
2023/10/18 03:47:57;;;;;;;;;;;5.70;99.90;;;;;;5134707;27;19915;-47
2023/10/18 03:50:31;;;;;;;;;;;5.70;99.90;;;;;;5130156;27;19915;-48
2023/10/18 03:52:57;;;;;;;;;;;5.70;99.90;;;;;;5134642;27;20332;-46
2023/10/18 03:55:36;;;;;;;;;;;5.70;99.90;;;;;;5132873;27;20006;-48
2023/10/18 03:58:04;;;;;;;;;;;5.70;99.90;;;;;;5134627;27;19912;-46
2023/10/18 04:00:37;;;;;;;;;;;5.70;99.90;;;;;;5114629;27;19912;-45
2023/10/18 04:03:08;;;;;;;;;;;5.70;99.90;;;;;;5113495;28;19907;-46
2023/10/18 04:07:59;;;;;;;;;;;5.70;99.90;;;;;;5127264;27;19945;-46
2023/10/18 04:10:24;;;;;;;;;;;5.70;99.90;;;;;;5117108;27;19912;-46
2023/10/18 04:12:50;;;;;;;;;;;5.70;99.90;;;;;;5113781;28;19908;-46
2023/10/18 04:15:22;;;;;;;;;;;5.70;99.90;;;;;;5126039;27;20247;-46
2023/10/18 04:18:02;;;;;;;;;;;5.70;99.90;;;;;;5125691;27;20263;-45
2023/10/18 04:20:31;;;;;;;;;;;5.70;99.90;;;;;;5116357;27;19915;-47
2023/10/18 04:22:57;;;;;;;;;;;5.70;99.90;;;;;;5118163;27;19998;-46
2023/10/18 04:25:29;;;;;;;;;;;5.70;99.90;;;;;;5132604;27;19961;-46
2023/10/18 04:27:59;;;;;;;;;;;5.70;99.90;;;;;;5133979;27;20173;-46
2023/10/18 04:30:31;;;;;;;;;;;5.70;99.90;;;;;;5131267;27;20345;-46
2023/10/18 04:33:00;;;;;;;;;;;5.70;99.90;;;;;;5133960;27;19907;-46
2023/10/18 04:35:26;;;;;;;;;;;5.70;99.90;;;;;;5130551;27;20297;-47
2023/10/18 04:37:57;;;;;;;;;;;5.70;99.90;;;;;;5118041;27;19942;-48
2023/10/18 04:40:25;;;;;;;;;;;5.60;99.90;;;;;;5113428;28;19920;-45
2023/10/18 04:42:51;;;;;;;;;;;5.60;99.90;;;;;;5115565;27;19908;-46
2023/10/18 04:45:17;;;;;;;;;;;5.50;99.90;;;;;;5131907;27;20049;-46
2023/10/18 04:47:42;;;;;;;;;;;5.50;99.90;;;;;;5133542;27;20009;-46
2023/10/18 04:50:11;;;;;;;;;;;5.60;99.90;;;;;;5133794;27;19908;-46
2023/10/18 04:52:43;;;;;;;;;;;5.50;99.90;;;;;;5132724;28;19949;-46
2023/10/18 04:55:14;;;;;;;;;;;5.50;99.90;;;;;;5132259;28;20013;-46
2023/10/18 04:57:40;;;;;;;;;;;5.50;99.90;;;;;;5127503;28;19964;-47
2023/10/18 05:00:25;;;;;;;;;;;5.50;99.90;;;;;;5129579;28;19915;-46
2023/10/18 05:02:58;;;;;;;;;;;5.50;99.90;;;;;;5133663;28;20353;-46
2023/10/18 05:05:26;;;;;;;;;;;5.50;99.90;;;;;;5123189;28;19923;-47
2023/10/18 05:07:53;;;;;;;;;;;5.50;99.90;;;;;;5112585;28;20292;-47
2023/10/18 05:10:20;;;;;;;;;;;5.50;99.90;;;;;;5113100;28;19908;-46
2023/10/18 05:15:31;;;;;;;;;;;5.50;99.90;;;;;;5122324;27;19931;-46
2023/10/18 05:18:04;;;;;;;;;;;5.50;99.90;;;;;;5137706;27;19932;-46
2023/10/18 05:20:46;;;;;;;;;;;5.40;99.90;;;;;;5131917;27;19911;-45
2023/10/18 05:23:21;;;;;;;;;;;5.40;99.90;;;;;;5120691;27;19908;-46
2023/10/18 05:25:48;;;;;;;;;;;5.40;99.90;;;;;;5121238;27;19952;-48
2023/10/18 05:28:17;;;;;;;;;;;5.40;99.90;;;;;;5137425;27;19926;-47
2023/10/18 05:36:29;;;;;;;;;;;5.40;99.90;;;;;;5137331;27;20003;-46
2023/10/18 05:38:52;;;;;;;;;;;5.40;99.90;;;;;;5114681;28;19966;-45
2023/10/18 05:43:59;;;;;;;;;;;5.40;99.90;;;;;;5097813;28;19928;-46
2023/10/18 05:46:27;;;;;;;;;;;5.40;99.90;;;;;;5116616;28;20210;-46
2023/10/18 05:48:55;;;;;;;;;;;5.40;99.90;;;;;;5115090;28;19924;-46
2023/10/18 05:53:52;;;;;;;;;;;5.40;99.90;;;;;;5099247;28;19919;-46
2023/10/18 05:56:24;;;;;;;;;;;5.40;99.90;;;;;;5107336;28;19908;-47
2023/10/18 05:59:16;;;;;;;;;;;5.40;99.90;;;;;;5095407;28;19908;-47
2023/10/18 06:01:38;;;;;;;;;;;5.40;99.90;;;;;;5096389;28;19969;-45
2023/10/18 06:04:03;;;;;;;;;;;5.40;99.90;;;;;;5095986;28;20366;-45
2023/10/18 06:06:30;;;;;;;;;;;5.50;99.90;;;;;;5110424;28;19911;-45
2023/10/18 06:08:57;;;;;;;;;;;5.50;99.90;;;;;;5115760;28;20282;-48
2023/10/18 06:11:23;;;;;;;;;;;5.40;99.90;;;;;;5095736;28;19919;-46
2023/10/18 06:13:48;;;;;;;;;;;5.50;99.90;;;;;;5097229;28;19912;-45
2023/10/18 06:16:20;;;;;;;;;;;5.40;99.90;;;;;;5109718;28;19912;-45
2023/10/18 06:18:46;;;;;;;;;;;5.50;99.90;;;;;;5095592;28;19966;-46
2023/10/18 06:21:18;;;;;;;;;;;5.50;99.90;;;;;;5095020;28;19908;-50
2023/10/18 06:23:55;;;;;;;;;;;5.50;99.90;;;;;;5114335;28;20412;-50
2023/10/18 06:26:33;;;;;;;;;;;5.50;99.90;;;;;;5102941;28;19922;-46
2023/10/18 06:29:00;;;;;;;;;;;5.50;99.90;;;;;;5096783;28;20412;-48
2023/10/18 06:31:29;;;;;;;;;;;5.50;99.90;;;;;;5103795;28;19954;-47
2023/10/18 06:33:57;;;;;;;;;;;5.50;99.90;;;;;;5098269;28;19996;-47
2023/10/18 06:36:24;;;;;;;;;;;5.60;99.90;;;;;;5108204;27;20358;-46
2023/10/18 06:38:51;;;;;;;;;;;5.60;99.90;;;;;;5111019;28;20271;-47
2023/10/18 06:41:19;;;;;;;;;;;5.60;99.90;;;;;;5115501;28;19907;-48
2023/10/18 06:43:46;;;;;;;;;;;5.60;99.90;;;;;;5104444;28;20029;-45
2023/10/18 06:46:18;;;;;;;;;;;5.70;99.90;;;;;;5098570;28;19919;-46
2023/10/18 06:48:44;;;;;;;;;;;5.70;99.90;;;;;;5115277;28;19920;-45
2023/10/18 06:51:17;;;;;;;;;;;5.70;99.90;;;;;;5104315;28;20401;-45
2023/10/18 06:53:47;;;;;;;;;;;5.80;99.90;;;;;;5095030;28;19908;-46
2023/10/18 06:56:39;;;;;;;;;;;5.80;99.90;;;;;;5094992;28;19912;-47
2023/10/18 06:59:04;;;;;;;;;;;5.80;99.90;;;;;;5093693;28;19998;-46
2023/10/18 07:01:31;;;;;;;;;;;5.90;99.90;;;;;;5093665;28;19913;-46
2023/10/18 07:03:56;;;;;;;;;;;5.90;99.90;;;;;;5094550;28;20297;-46
2023/10/18 07:06:29;;;;;;;;;;;5.90;99.90;;;;;;5094425;28;19918;-46
2023/10/18 07:08:55;;;;;;;;;;;6.00;99.90;;;;;;5094902;28;19920;-47
2023/10/18 07:11:22;;;;;;;;;;;6.00;99.90;;;;;;5097717;28;20425;-46
2023/10/18 07:13:49;;;;;;;;;;;6.00;99.90;;;;;;5096691;28;19927;-46
2023/10/18 07:16:16;;;;;;;;;;;6.10;99.90;;;;;;5095226;28;19912;-46
2023/10/18 07:18:44;;;;;;;;;;;6.10;99.90;;;;;;5094429;28;20278;-45
2023/10/18 07:21:11;;;;;;;;;;;6.10;99.90;;;;;;5099032;28;20373;-47
2023/10/18 07:23:37;;;;;;;;;;;6.20;99.90;;;;;;5109108;28;19915;-46
2023/10/18 07:26:03;;;;;;;;;;;6.20;99.90;;;;;;5111719;28;20002;-45
2023/10/18 07:28:29;;;;;;;;;;;6.30;99.90;;;;;;5104124;28;20053;-51
2023/10/18 07:30:55;;;;;;;;;;;6.40;99.90;;;;;;5094350;28;20453;-46
2023/10/18 07:33:23;;;;;;;;;;;6.40;99.90;;;;;;5108588;28;19911;-46
2023/10/18 07:35:49;;;;;;;;;;;6.40;99.90;;;;;;5114577;28;20486;-46
2023/10/18 07:38:14;;;;;;;;;;;6.50;99.90;;;;;;5102687;28;19920;-47
2023/10/18 07:40:43;;;;;;;;;;;6.50;99.90;;;;;;5098223;28;20419;-46
2023/10/18 07:43:15;;;;;;;;;;;6.50;99.90;;;;;;5100878;28;19918;-46
2023/10/18 07:45:40;;;;;;;;;;;6.60;99.90;;;;;;5097325;28;19919;-47
2023/10/18 07:48:06;;;;;;;;;;;6.60;99.90;;;;;;5109026;28;20282;-45
2023/10/18 07:50:34;;;;;;;;;;;6.70;99.90;;;;;;5108398;28;20355;-47
2023/10/18 07:53:00;;;;;;;;;;;6.70;99.90;;;;;;5097161;28;19927;-47
2023/10/18 07:55:27;;;;;;;;;;;6.80;99.90;;;;;;5112080;28;19907;-46
2023/10/18 07:57:54;;;;;;;;;;;6.80;99.90;;;;;;5102333;28;19912;-46
2023/10/18 08:00:26;;;;;;;;;;;6.90;99.90;;;;;;5097234;28;19911;-47
2023/10/18 08:02:51;;;;;;;;;;;6.90;99.90;;;;;;5108925;28;20381;-45
2023/10/18 08:05:25;;;;;;;;;;;7.00;99.90;;;;;;5112319;28;19951;-46
2023/10/18 08:07:52;;;;;;;;;;;7.10;99.90;;;;;;5105178;28;19916;-46
2023/10/18 08:10:21;;;;;;;;;;;7.10;99.90;;;;;;5107248;28;19918;-46
2023/10/18 08:12:57;;;;;;;;;;;7.20;99.90;;;;;;5102430;28;19911;-46
2023/10/18 08:15:34;;;;;;;;;;;7.20;99.90;;;;;;5091614;28;19916;-46
2023/10/18 08:18:00;;;;;;;;;;;7.30;99.90;;;;;;5092632;28;19954;-46
2023/10/18 08:22:51;;;;;;;;;;;7.40;99.90;;;;;;5093124;28;19959;-47
2023/10/18 08:25:31;;;;;;;;;;;7.50;99.90;;;;;;5095486;28;19912;-46
2023/10/18 08:27:57;;;;;;;;;;;7.50;99.90;;;;;;5095295;28;20014;-46
2023/10/18 08:33:07;;;;;;;;;;;7.60;99.90;;;;;;5100531;28;19915;-46
2023/10/18 08:35:32;;;;;;;;;;;7.70;99.90;;;;;;5111720;28;19912;-48
2023/10/18 08:38:04;;;;;;;;;;;7.80;99.90;;;;;;5121927;27;20373;-48
2023/10/18 08:43:12;;;;;;;;;;;7.90;99.90;;;;;;5113526;27;20002;-45
2023/10/18 08:45:45;;;;;;;;;;;8.00;99.90;;;;;;5112913;28;19916;-48
2023/10/18 08:48:21;;;;;;;;;;;8.00;99.90;;;;;;5126002;27;20011;-47
2023/10/18 08:50:48;;;;;;;;;;;8.10;99.90;;;;;;5131688;27;19918;-46
2023/10/18 08:53:15;;;;;;;;;;;8.10;99.90;;;;;;5118286;28;19912;-48
2023/10/18 08:55:44;;;;;;;;;;;8.20;99.90;;;;;;5118959;28;19918;-46
2023/10/18 08:58:10;;;;;;;;;;;8.30;99.90;;;;;;5132733;28;19911;-47
2023/10/18 09:03:02;;;;;;;;;;;8.40;99.90;;;;;;5126234;28;20380;-46
2023/10/18 09:05:28;;;;;;;;;;;8.40;99.90;;;;;;5113758;28;19911;-47
2023/10/18 09:07:54;;;;;;;;;;;8.50;99.90;;;;;;5116514;28;19923;-48
2023/10/18 09:10:33;;;;;;;;;;;8.60;99.90;;;;;;5116462;28;19916;-47
2023/10/18 09:16:01;;;;;;;;;;;8.70;99.90;;;;;;5122398;28;19919;-46
2023/10/18 09:18:30;;;;;;;;;;;8.70;99.90;;;;;;5132083;28;19911;-46
2023/10/18 09:20:58;;;;;;;;;;;8.80;99.90;;;;;;5129597;28;20397;-45
2023/10/18 09:23:30;;;;;;;;;;;8.80;99.90;;;;;;5132638;28;19951;-45
2023/10/18 09:26:10;;;;;;;;;;;8.90;99.90;;;;;;5130684;28;19977;-45
2023/10/18 09:28:36;;;;;;;;;;;9.00;99.90;;;;;;5118147;28;20033;-48
2023/10/18 09:31:28;;;;;;;;;;;9.00;99.90;;;;;;5126096;28;20354;-49
2023/10/18 09:33:52;;;;;;;;;;;9.10;99.90;;;;;;5132078;28;20362;-47
2023/10/18 09:36:23;;;;;;;;;;;9.10;99.90;;;;;;5132705;28;20285;-48
2023/10/18 09:38:49;;;;;;;;;;;9.10;99.90;;;;;;5133087;27;20343;-46
2023/10/18 09:41:15;;;;;;;;;;;9.20;99.90;;;;;;5112831;28;20379;-47
2023/10/18 09:43:41;;;;;;;;;;;9.20;99.90;;;;;;5112400;28;20274;-46
2023/10/18 09:46:16;;;;;;;;;;;9.30;99.90;;;;;;5112863;28;19908;-48
2023/10/18 09:48:44;;;;;;;;;;;9.30;99.90;;;;;;5112506;28;19916;-51
2023/10/18 09:51:10;;;;;;;;;;;9.40;99.90;;;;;;5123331;28;19911;-46
2023/10/18 09:53:42;;;;;;;;;;;9.50;99.90;;;;;;5123571;28;19911;-47
2023/10/18 09:56:12;;;;;;;;;;;9.60;99.90;;;;;;5114120;28;19911;-47
2023/10/18 09:58:42;;;;;;;;;;;9.60;99.90;;;;;;5110937;28;19994;-48
2023/10/18 10:01:17;;;;;;;;;;;9.70;99.90;;;;;;5127238;27;20003;-47
2023/10/18 10:03:50;;;;;;;;;;;9.70;99.90;;;;;;5137126;27;19907;-49
2023/10/18 10:06:17;;;;;;;;;;;9.80;99.90;;;;;;5136899;27;19907;-48
2023/10/18 10:08:44;;;;;;;;;;;9.80;99.90;;;;;;5136809;27;20034;-46
2023/10/18 10:11:13;;;;;;;;;;;9.80;99.90;;;;;;5136686;27;19907;-48
2023/10/18 10:13:39;;;;;;;;;;;9.80;99.90;;;;;;5136766;27;19915;-48
2023/10/18 10:16:08;;;;;;;;;;;9.90;99.90;;;;;;5136718;27;19907;-47
2023/10/18 10:18:37;;;;;;;;;;;9.90;99.90;;;;;;5136631;27;19923;-47
2023/10/18 10:21:06;;;;;;;;;;;10.00;99.90;;;;;;5136370;27;19911;-47
2023/10/18 10:23:38;;;;;;;;;;;10.00;99.90;;;;;;5136494;27;19915;-46
2023/10/18 10:26:15;;;;;;;;;;;10.10;99.90;;;;;;5136368;27;20369;-49
2023/10/18 10:31:57;;;;;;;;;;;10.20;99.90;;;;;;5136556;27;20305;-49
2023/10/18 10:34:32;;;;;;;;;;;10.40;99.90;;;;;;5136402;27;19911;-46
2023/10/18 10:37:19;;;;;;;;;;;10.40;99.90;;;;;;5135983;27;19919;-47
2023/10/18 10:39:51;;;;;;;;;;;10.50;99.90;;;;;;5136216;27;20000;-48
2023/10/18 10:45:30;;;;;;;;;;;10.60;99.90;;;;;;5136549;27;19914;-46
2023/10/18 10:47:57;;;;;;;;;;;10.60;99.90;;;;;;5135988;27;20016;-49
2023/10/18 10:50:51;;;;;;;;;;;10.60;99.90;;;;;;5135936;27;19908;-47
2023/10/18 10:53:31;;;;;;;;;;;10.70;99.90;;;;;;5135990;27;19907;-47
2023/10/18 10:55:57;;;;;;;;;;;10.70;99.90;;;;;;5135738;27;19908;-46
2023/10/18 10:58:29;;;;;;;;;;;10.80;99.90;;;;;;5135937;27;19914;-47
2023/10/18 11:01:12;;;;;;;;;;;10.80;99.90;;;;;;5135754;27;19934;-47
2023/10/18 11:03:53;;;;;;;;;;;10.80;99.90;;;;;;5135863;27;19960;-47
2023/10/18 11:06:22;;;;;;;;;;;10.90;99.90;;;;;;5135764;27;19975;-47
2023/10/18 11:08:47;;;;;;;;;;;11.00;99.90;;;;;;5135569;27;19991;-47
2023/10/18 11:11:14;;;;;;;;;;;11.00;99.90;;;;;;5135147;27;19957;-47
2023/10/18 11:13:41;;;;;;;;;;;11.10;99.90;;;;;;5135484;27;20338;-47
2023/10/18 11:16:07;;;;;;;;;;;11.10;99.90;;;;;;5135472;27;19930;-47
2023/10/18 11:18:39;;;;;;;;;;;11.10;99.90;;;;;;5135433;27;20362;-46
2023/10/18 11:21:05;;;;;;;;;;;11.10;99.90;;;;;;5135379;27;20366;-47
2023/10/18 11:23:33;;;;;;;;;;;11.10;99.90;;;;;;5135318;27;19907;-47
2023/10/18 11:25:59;;;;;;;;;;;11.10;99.90;;;;;;5135240;27;19911;-47
2023/10/18 11:28:31;;;;;;;;;;;11.20;99.90;;;;;;5135108;27;20392;-48
2023/10/18 11:30:57;;;;;;;;;;;11.20;99.90;;;;;;5135183;27;19907;-47
2023/10/18 11:33:54;;;;;;;;;;;11.20;99.90;;;;;;5135203;27;20003;-47
2023/10/18 11:36:19;;;;;;;;;;;11.30;99.90;;;;;;5135090;27;19926;-50
2023/10/18 11:39:07;;;;;;;;;;;11.30;99.90;;;;;;5134810;27;19931;-48
2023/10/18 11:41:34;;;;;;;;;;;11.40;99.90;;;;;;5134815;27;19908;-47
2023/10/18 11:44:06;;;;;;;;;;;11.50;99.90;;;;;;5134870;27;19911;-50
2023/10/18 11:46:49;;;;;;;;;;;11.50;99.90;;;;;;5134785;27;19907;-46
2023/10/18 11:49:19;;;;;;;;;;;11.60;99.90;;;;;;5134808;27;19937;-49
2023/10/18 11:51:51;;;;;;;;;;;11.70;99.90;;;;;;5134600;27;20288;-48
2023/10/18 11:54:29;;;;;;;;;;;11.70;99.90;;;;;;5134749;27;19911;-46
2023/10/18 11:56:56;;;;;;;;;;;11.80;99.90;;;;;;5134566;27;19912;-48
2023/10/18 11:59:25;;;;;;;;;;;11.90;99.90;;;;;;5134697;27;19908;-49
2023/10/18 12:02:06;;;;;;;;;;;11.90;99.90;;;;;;5134532;27;20006;-47
2023/10/18 12:04:37;;;;;;;;;;;11.90;99.90;;;;;;5134631;27;19907;-50
2023/10/18 12:07:03;;;;;;;;;;;11.90;99.90;;;;;;5134479;27;19912;-48
2023/10/18 12:09:32;;;;;;;;;;;12.00;99.90;;;;;;5134291;27;20385;-46
2023/10/18 12:11:58;;;;;;;;;;;12.00;99.90;;;;;;5134322;27;19934;-47
2023/10/18 12:14:23;;;;;;;;;;;12.10;99.90;;;;;;5134421;27;19953;-46
2023/10/18 12:16:50;;;;;;;;;;;12.10;99.90;;;;;;5134280;27;19908;-48
2023/10/18 12:19:16;;;;;;;;;;;12.10;99.90;;;;;;5134350;27;19914;-46
2023/10/18 12:21:48;;;;;;;;;;;12.10;99.90;;;;;;5133975;27;20002;-45
2023/10/18 12:24:14;;;;;;;;;;;12.10;99.90;;;;;;5133862;27;19912;-46
2023/10/18 12:26:41;;;;;;;;;;;12.10;99.90;;;;;;5134149;27;20374;-46
2023/10/18 12:29:06;;;;;;;;;;;12.10;99.90;;;;;;5134044;27;19923;-46
2023/10/18 12:31:38;;;;;;;;;;;12.10;99.90;;;;;;5134222;27;20333;-46
2023/10/18 12:34:04;;;;;;;;;;;12.10;99.90;;;;;;5134043;27;20405;-46
2023/10/18 12:36:33;;;;;;;;;;;12.10;99.90;;;;;;5133812;27;19907;-47
2023/10/18 12:39:01;;;;;;;;;;;12.10;99.90;;;;;;5133974;27;19915;-46
2023/10/18 12:41:36;;;;;;;;;;;12.10;99.90;;;;;;5133930;27;19914;-46
2023/10/18 12:44:03;;;;;;;;;;;12.10;99.90;;;;;;5133927;27;20040;-46
2023/10/18 12:46:29;;;;;;;;;;;12.10;99.90;;;;;;5133805;27;20423;-46
2023/10/18 12:48:57;;;;;;;;;;;12.10;99.90;;;;;;5133685;27;19920;-45
2023/10/18 12:51:30;;;;;;;;;;;12.10;99.90;;;;;;5133924;27;19912;-46
2023/10/18 12:53:59;;;;;;;;;;;12.10;99.90;;;;;;5133787;27;19912;-45
2023/10/18 12:59:23;;;;;;;;;;;12.10;99.90;;;;;;5133763;28;19915;-45
2023/10/18 13:04:07;;;;;;;;;;;12.10;99.90;;;;;;5133727;28;19907;-46
2023/10/18 13:06:42;;;;;;;;;;;12.20;99.90;;;;;;5133783;28;20024;-46
2023/10/18 13:14:17;;;;;;;;;;;12.40;99.90;;;;;;5133584;28;19907;-46
2023/10/18 13:16:42;;;;;;;;;;;12.50;99.90;;;;;;5133586;28;20372;-46
2023/10/18 13:19:15;;;;;;;;;;;12.50;99.90;;;;;;5133772;28;19951;-45
2023/10/18 13:21:43;;;;;;;;;;;12.50;99.90;;;;;;5133676;28;19960;-48
2023/10/18 13:24:25;;;;;;;;;;;12.70;99.90;;;;;;5133473;28;19970;-47
2023/10/18 13:26:53;;;;;;;;;;;12.90;99.90;;;;;;5133473;28;19915;-45
2023/10/18 13:31:44;;;;;;;;;;;13.50;99.90;;;;;;5133719;28;20155;-47
2023/10/18 13:34:18;;;;;;;;;;;13.80;99.90;;;;;;5135360;27;20349;-45
2023/10/18 13:36:44;;;;;;;;;;;14.10;99.90;;;;;;5137143;27;20350;-46
2023/10/18 13:39:11;;;;;;;;;;;14.30;99.90;;;;;;5137368;27;19908;-46
2023/10/18 13:41:37;;;;;;;;;;;14.50;99.90;;;;;;5137327;27;20251;-46
2023/10/18 13:44:04;;;;;;;;;;;14.70;99.90;;;;;;5137278;27;19918;-47
2023/10/18 13:46:30;;;;;;;;;;;14.60;99.90;;;;;;5137187;27;20354;-47
2023/10/18 13:48:55;;;;;;;;;;;14.50;99.90;;;;;;5137055;27;20010;-47
2023/10/18 13:51:21;;;;;;;;;;;14.20;99.90;;;;;;5137166;27;19907;-46
2023/10/18 13:53:46;;;;;;;;;;;13.90;99.90;;;;;;5136999;27;20599;-46
2023/10/18 13:56:15;;;;;;;;;;;13.50;99.90;;;;;;5137075;27;19907;-46
2023/10/18 13:58:41;;;;;;;;;;;13.30;99.90;;;;;;5136948;27;20299;-47
2023/10/18 14:01:22;;;;;;;;;;;13.00;99.90;;;;;;5136912;27;20269;-46
2023/10/18 14:03:51;;;;;;;;;;;12.80;99.90;;;;;;5136914;27;19998;-46
2023/10/18 14:06:18;;;;;;;;;;;12.60;99.90;;;;;;5136736;27;19915;-46
2023/10/18 14:08:47;;;;;;;;;;;12.40;99.90;;;;;;5136660;27;20064;-45
2023/10/18 14:11:13;;;;;;;;;;;12.30;99.90;;;;;;5136874;27;19959;-46
2023/10/18 14:13:43;;;;;;;;;;;12.10;99.90;;;;;;5136711;27;19908;-47
2023/10/18 14:16:17;;;;;;;;;;;12.10;99.90;;;;;;5136558;27;19914;-46
2023/10/18 14:18:47;;;;;;;;;;;12.10;99.90;;;;;;5136563;27;19957;-45
2023/10/18 14:21:13;;;;;;;;;;;12.10;99.90;;;;;;5136739;27;19908;-46
2023/10/18 14:23:43;;;;;;;;;;;12.10;99.90;;;;;;5136566;27;19907;-45
2023/10/18 14:26:09;;;;;;;;;;;12.20;99.90;;;;;;5136373;27;19907;-46
2023/10/18 14:28:36;;;;;;;;;;;12.20;99.90;;;;;;5136452;27;19942;-46
2023/10/18 14:31:02;;;;;;;;;;;12.10;99.90;;;;;;5136219;27;19908;-48
2023/10/18 14:33:31;;;;;;;;;;;12.20;99.90;;;;;;5136283;27;19915;-47
2023/10/18 14:36:05;;;;;;;;;;;12.10;99.90;;;;;;5136287;27;20016;-46
2023/10/18 14:38:32;;;;;;;;;;;12.20;99.90;;;;;;5136088;27;19919;-46
2023/10/18 14:40:58;;;;;;;;;;;12.20;99.90;;;;;;5136156;27;19930;-47
2023/10/18 14:43:23;;;;;;;;;;;12.20;99.90;;;;;;5136165;27;20370;-45
2023/10/18 14:45:49;;;;;;;;;;;12.30;99.90;;;;;;5135509;27;19908;-45
2023/10/18 14:48:15;;;;;;;;;;;12.40;99.90;;;;;;5136110;27;19915;-46
2023/10/18 14:50:41;;;;;;;;;;;12.60;99.90;;;;;;5136044;27;19907;-46
2023/10/18 14:53:07;;;;;;;;;;;12.70;99.90;;;;;;5135964;27;19915;-46
2023/10/18 14:55:35;;;;;;;;;;;12.70;99.90;;;;;;5136186;27;19908;-45
2023/10/18 14:58:01;;;;;;;;;;;12.70;99.90;;;;;;5135812;27;19907;-46
2023/10/18 15:00:26;;;;;;;;;;;12.60;99.90;;;;;;5135740;27;19911;-46
2023/10/18 15:02:52;;;;;;;;;;;12.50;99.90;;;;;;5135981;27;19914;-46
2023/10/18 15:05:18;;;;;;;;;;;12.40;99.90;;;;;;5135760;27;20304;-48
2023/10/18 15:07:44;;;;;;;;;;;12.30;99.90;;;;;;5135632;27;19910;-45
2023/10/18 15:10:09;;;;;;;;;;;12.10;99.90;;;;;;5135547;27;19968;-45
2023/10/18 15:12:38;;;;;;;;;;;12.00;99.90;;;;;;5135581;27;19915;-46
2023/10/18 15:15:05;;;;;;;;;;;11.90;99.90;;;;;;5135522;27;19912;-46
2023/10/18 15:17:33;;;;;;;;;;;11.80;99.90;;;;;;5135519;27;20285;-46
2023/10/18 15:19:59;;;;;;;;;;;11.60;99.90;;;;;;5135283;27;20014;-47
2023/10/18 15:22:26;;;;;;;;;;;11.50;99.90;;;;;;5135316;27;19958;-46
2023/10/18 15:24:55;;;;;;;;;;;11.40;99.90;;;;;;5135306;27;20156;-46
2023/10/18 15:27:20;;;;;;;;;;;11.30;99.90;;;;;;5135277;27;19908;-46